UTTT/TAS METAR and TAF weather

Enter ICAO airport designator
Station Type Date Time Source
UTTT METAR 2018/12/19 03:00 UTC NOAA

UTTT 190300Z 34004KT 270V050 3000 -SHRA BR OVC014CB 03/02 Q1022 R26R/29//50 NOSIG


Station Type Date Time Source
UTTT Decoded METAR 2018/12/19 03:00 UTC NOAA

Tashkent, Uzbekistan (UTTT) 41-16N 069-16E 488M
Dec 18, 2018 - 10:00 PM EST / 2018.12.19 0300 UTC
Wind: from the NNW (340 degrees) at 5 MPH (4 KT) (direction variable):0
Visibility: 1 mile(s):0
Sky conditions: overcast
Weather: light rain showers; mist; Cumulonimbus clouds observed
Temperature: 37 F (3 C)
Dew Point: 35 F (2 C)
Relative Humidity: 93%
Pressure (altimeter): 30.18 in. Hg (1022 hPa)
ob: UTTT 190300Z 34004KT 270V050 3000 -SHRA BR OVC014CB 03/02 Q1022 R26R/29//50 NOSIG
cycle: 3

Station Type Date Time Source
UTTT TAF 2018/12/18 18:09 UTC NOAA

TAF UTTT 181700Z 1818/1918 24010KT 4000 BR SCT010 BKN040CB OVC100
TEMPO 1822/1908 28012KT 2100 -SHRA BR SCT007 BKN030CB
BECMG 1908/1911 32012KT BKN005 OVC020CB
TEMPO 1908/1918 30010G20KT 1500 SHSNRA BR BKN003 OVC015CB


Example: see airport list